Time;durP1;ratioP1;P1;durP2;ratioP2;P2;SDS_P1;SDS_P2;PMS_P1;PMS_P2;Temp;Humidity;BMP_temperature;BMP_pressure;BME280_temperature;BME280_humidity;BME280_pressure;Samples;Min_cycle;Max_cycle;Signal;HPM_P1;HPM_P2
2021/01/05 00:02:04;;;;;;;4;1.7;;;;;;;-1.58;73.6543;928.9029;;;;
2021/01/05 00:04:33;;;;;;;5.1;2.4;;;;;;;-1.66;73.45215;928.9025;;;;
2021/01/05 00:06:54;;;;;;;5;2.1;;;;;;;-1.95;73.97949;928.9519;;;;
2021/01/05 00:09:19;;;;;;;4.1;2.2;;;;;;;-1.94;72.76172;928.9164;;;;
2021/01/05 00:11:44;;;;;;;6.1;3.1;;;;;;;-1.96;72.75781;928.943;;;;
2021/01/05 00:14:11;;;;;;;5.2;2.3;;;;;;;-1.98;73.20996;928.9131;;;;
2021/01/05 00:16:37;;;;;;;4.5;2.3;;;;;;;-2.04;73.04199;929.0499;;;;
2021/01/05 00:19:01;;;;;;;4.8;2.6;;;;;;;-2.03;73.13379;928.9966;;;;
2021/01/05 00:21:28;;;;;;;2.8;1.8;;;;;;;-2.02;73.3457;929.0533;;;;
2021/01/05 00:23:53;;;;;;;2.8;2.1;;;;;;;-2.06;73.11621;928.9969;;;;
2021/01/05 00:26:18;;;;;;;7.8;2.2;;;;;;;-2.3;73.82715;928.9666;;;;
2021/01/05 00:28:43;;;;;;;2.1;1.3;;;;;;;-2.11;73.55078;929.0189;;;;
2021/01/05 00:31:08;;;;;;;4.6;1.8;;;;;;;-2.01;72.79297;929.0239;;;;
2021/01/05 00:33:34;;;;;;;2.3;1.8;;;;;;;-1.98;72.38965;928.9927;;;;
2021/01/05 00:35:59;;;;;;;3.1;2.3;;;;;;;-1.93;71.99902;929.0533;;;;
2021/01/05 00:38:24;;;;;;;3;1.8;;;;;;;-1.99;71.78711;929.0322;;;;
2021/01/05 00:40:49;;;;;;;3.9;2.1;;;;;;;-2.37;72.4873;929.0587;;;;
2021/01/05 00:43:14;;;;;;;3.7;1.9;;;;;;;-2.4;72.3584;929.1088;;;;
2021/01/05 00:45:40;;;;;;;4.8;2.6;;;;;;;-2.35;72.3457;929.1306;;;;
2021/01/05 00:48:04;;;;;;;9.2;2.4;;;;;;;-2.32;72.31934;929.0204;;;;
2021/01/05 00:50:29;;;;;;;2.1;1.6;;;;;;;-2.41;72.40137;929.1758;;;;
2021/01/05 00:52:55;;;;;;;2.5;2.3;;;;;;;-2.31;72.47559;929.1688;;;;
2021/01/05 00:55:20;;;;;;;1.9;1.7;;;;;;;-2.28;72.95703;929.2059;;;;
2021/01/05 00:57:47;;;;;;;3.8;2.1;;;;;;;-2.27;72.8252;929.1761;;;;
2021/01/05 01:00:12;;;;;;;3.2;2.2;;;;;;;-2.25;72.9834;929.2148;;;;
2021/01/05 01:02:37;;;;;;;1.5;1.4;;;;;;;-2.27;72.91406;929.1401;;;;
2021/01/05 01:05:02;;;;;;;5;2.4;;;;;;;-2.23;72.48926;929.2198;;;;
2021/01/05 01:07:27;;;;;;;3;2.3;;;;;;;-2.25;73.18262;929.1495;;;;
2021/01/05 01:09:53;;;;;;;4.8;2.6;;;;;;;-2.47;74.45215;929.2395;;;;
2021/01/05 01:12:18;;;;;;;3.7;2.3;;;;;;;-2.46;74.98535;929.279;;;;
2021/01/05 01:14:44;;;;;;;3.8;2.2;;;;;;;-2.46;74.87402;929.2947;;;;
2021/01/05 01:17:09;;;;;;;5.3;2.8;;;;;;;-2.42;74.62598;929.2892;;;;
2021/01/05 01:19:35;;;;;;;3;2.3;;;;;;;-2.4;74.06641;929.3123;;;;
2021/01/05 01:22:00;;;;;;;2.5;1.8;;;;;;;-2.47;74.05371;929.3146;;;;
2021/01/05 01:24:26;;;;;;;2.6;2.2;;;;;;;-2.52;73.86621;929.186;;;;
2021/01/05 01:26:51;;;;;;;4.3;2.4;;;;;;;-2.52;74.55469;929.2034;;;;
2021/01/05 01:29:16;;;;;;;4.2;2.5;;;;;;;-2.59;74.17676;929.1872;;;;
2021/01/05 01:31:42;;;;;;;3.1;1.9;;;;;;;-2.5;73.81641;929.2784;;;;
2021/01/05 01:34:07;;;;;;;2.7;1.7;;;;;;;-2.5;73.77148;929.3273;;;;
2021/01/05 01:36:32;;;;;;;4;2.7;;;;;;;-2.62;73.94922;929.2766;;;;
2021/01/05 01:38:57;;;;;;;2.2;1.9;;;;;;;-2.58;74.61035;929.3301;;;;
2021/01/05 01:41:22;;;;;;;3;2.2;;;;;;;-2.6;74.92773;929.3254;;;;
2021/01/05 01:43:47;;;;;;;5.6;2;;;;;;;-2.64;75.05273;929.2905;;;;
2021/01/05 01:46:14;;;;;;;2.7;2.1;;;;;;;-2.68;75.33203;929.3245;;;;
2021/01/05 01:48:38;;;;;;;2.6;2.1;;;;;;;-2.68;75.26758;929.3038;;;;
2021/01/05 01:51:04;;;;;;;5.7;2.6;;;;;;;-2.69;75.09961;929.3025;;;;
2021/01/05 01:53:30;;;;;;;4.1;2.2;;;;;;;-2.93;75.9082;929.223;;;;
2021/01/05 01:55:55;;;;;;;5.5;2.6;;;;;;;-2.89;75.88086;929.2737;;;;
2021/01/05 01:58:20;;;;;;;3;1.7;;;;;;;-2.81;75.37793;929.2721;;;;
2021/01/05 02:00:45;;;;;;;3.8;2;;;;;;;-2.83;75.49316;929.116;;;;
2021/01/05 02:03:11;;;;;;;4;2.2;;;;;;;-2.8;75.13379;929.2648;;;;
2021/01/05 02:05:36;;;;;;;3.7;2;;;;;;;-2.78;74.99316;929.2969;;;;
2021/01/05 02:08:01;;;;;;;4.1;2.1;;;;;;;-3.1;76.17578;929.2999;;;;
2021/01/05 02:10:26;;;;;;;7.9;2.8;;;;;;;-3.12;76.79102;929.2626;;;;
2021/01/05 02:12:51;;;;;;;5;1.9;;;;;;;-3.32;77.38477;929.1997;;;;
2021/01/05 02:15:16;;;;;;;3.4;2.1;;;;;;;-3.4;77.90039;929.2378;;;;
2021/01/05 02:17:42;;;;;;;4;3;;;;;;;-3.46;78.47363;929.2347;;;;
2021/01/05 02:20:07;;;;;;;2;1.7;;;;;;;-3.48;78.42676;929.2427;;;;
2021/01/05 02:22:32;;;;;;;6.8;2.7;;;;;;;-3.64;78.92578;929.2946;;;;
2021/01/05 02:24:57;;;;;;;5.5;2.9;;;;;;;-3.63;79.01758;929.2997;;;;
2021/01/05 02:27:22;;;;;;;4.2;2.7;;;;;;;-3.67;78.85449;929.2965;;;;
2021/01/05 02:29:48;;;;;;;3;2.4;;;;;;;-3.7;78.99121;929.298;;;;
2021/01/05 02:32:13;;;;;;;4.1;2.9;;;;;;;-3.81;79.33691;929.2896;;;;
2021/01/05 02:34:39;;;;;;;3.3;2.1;;;;;;;-3.76;79.32324;929.2601;;;;
2021/01/05 02:37:03;;;;;;;3.7;2.9;;;;;;;-3.64;78.66309;929.3072;;;;
2021/01/05 02:39:28;;;;;;;8.5;3.3;;;;;;;-3.87;79.00488;929.2533;;;;
2021/01/05 02:41:54;;;;;;;6.9;2.5;;;;;;;-3.88;79.18945;929.2177;;;;
2021/01/05 02:44:19;;;;;;;4.5;3;;;;;;;-3.89;79.0791;929.1257;;;;
2021/01/05 02:46:44;;;;;;;6.6;3.2;;;;;;;-3.93;79.04785;929.1711;;;;
2021/01/05 02:49:09;;;;;;;3.8;2.4;;;;;;;-3.88;79.0791;929.097;;;;
2021/01/05 02:51:34;;;;;;;5;3.1;;;;;;;-3.85;78.80957;929.212;;;;
2021/01/05 02:53:59;;;;;;;3.3;2.3;;;;;;;-3.99;79.19238;929.2344;;;;
2021/01/05 02:57:05;;;;;;;4.2;2.4;;;;;;;-4.14;79.9248;929.1679;;;;
2021/01/05 02:59:31;;;;;;;5.8;2.7;;;;;;;-4.1;80.07617;929.0897;;;;
2021/01/05 03:01:56;;;;;;;2.2;2;;;;;;;-3.97;79.29492;929.1653;;;;
2021/01/05 03:04:21;;;;;;;6;3.2;;;;;;;-3.86;78.38867;929.1229;;;;
2021/01/05 03:06:46;;;;;;;3;2.3;;;;;;;-3.76;77.84375;929.1733;;;;
2021/01/05 03:09:11;;;;;;;4.7;2.2;;;;;;;-3.64;77.58008;929.1228;;;;
2021/01/05 03:11:36;;;;;;;4.4;2.9;;;;;;;-3.61;77.23047;929.0912;;;;
2021/01/05 03:14:01;;;;;;;3.1;2.2;;;;;;;-3.74;77.42969;929.1267;;;;
2021/01/05 03:16:26;;;;;;;3;2.7;;;;;;;-3.86;77.98047;929.0715;;;;
2021/01/05 03:18:51;;;;;;;3.4;2.2;;;;;;;-3.84;78.12695;929.1067;;;;
2021/01/05 03:21:17;;;;;;;4;2.3;;;;;;;-3.72;77.42188;929.1136;;;;
2021/01/05 03:23:42;;;;;;;4.2;2.2;;;;;;;-3.78;77.4541;929.0837;;;;
2021/01/05 03:26:07;;;;;;;7.5;3.5;;;;;;;-4;78.36133;929.0993;;;;
2021/01/05 03:28:32;;;;;;;3.4;2.5;;;;;;;-4.09;78.58887;929.1365;;;;
2021/01/05 03:30:58;;;;;;;3.5;2.7;;;;;;;-4.17;79.32324;929.122;;;;
2021/01/05 03:33:23;;;;;;;4.9;2.1;;;;;;;-4.23;79.69727;929.1591;;;;
2021/01/05 03:35:48;;;;;;;3.5;2.4;;;;;;;-4.04;79.30371;929.1545;;;;
2021/01/05 03:38:14;;;;;;;5.2;3;;;;;;;-3.87;78.25391;929.1569;;;;
2021/01/05 03:40:39;;;;;;;6;2.5;;;;;;;-3.78;77.2666;929.1245;;;;
2021/01/05 03:43:04;;;;;;;2.2;1.8;;;;;;;-3.67;76.36035;929.1231;;;;
2021/01/05 03:45:29;;;;;;;5.5;2.7;;;;;;;-3.59;75.94336;929.1597;;;;
2021/01/05 03:47:54;;;;;;;2.8;2.1;;;;;;;-3.53;75.66699;929.1;;;;
2021/01/05 03:50:19;;;;;;;3.2;2.1;;;;;;;-3.45;75.37109;929.152;;;;
2021/01/05 03:52:44;;;;;;;4.8;1.9;;;;;;;-3.44;75.30762;929.1767;;;;
2021/01/05 03:55:10;;;;;;;8.5;2.1;;;;;;;-3.37;75.45215;929.1411;;;;
2021/01/05 03:57:35;;;;;;;7.2;1.8;;;;;;;-3.31;75.2207;929.0754;;;;
2021/01/05 04:00:00;;;;;;;5;2.6;;;;;;;-3.41;75.96484;929.1975;;;;
2021/01/05 04:02:31;;;;;;;4.7;2;;;;;;;-3.37;75.77441;929.1547;;;;
2021/01/05 04:04:56;;;;;;;3.2;2.1;;;;;;;-3.78;77.14551;929.1475;;;;
2021/01/05 04:07:21;;;;;;;2.7;1.8;;;;;;;-3.75;77.78906;929.1307;;;;
2021/01/05 04:09:46;;;;;;;2.8;2.2;;;;;;;-3.7;77.96484;929.067;;;;
2021/01/05 04:12:11;;;;;;;5.8;2.6;;;;;;;-3.68;77.67188;929.1865;;;;
2021/01/05 04:14:37;;;;;;;2.2;1.3;;;;;;;-3.6;77.24512;929.1094;;;;
2021/01/05 04:17:02;;;;;;;7;2.6;;;;;;;-3.54;76.71484;929.1599;;;;
2021/01/05 04:19:27;;;;;;;4;2.2;;;;;;;-3.58;76.97168;929.2139;;;;
2021/01/05 04:21:53;;;;;;;4.5;2.3;;;;;;;-3.73;77.51758;929.2034;;;;
2021/01/05 04:24:18;;;;;;;8.6;2.7;;;;;;;-4.11;79.52148;929.2204;;;;
2021/01/05 04:26:43;;;;;;;3.9;2.5;;;;;;;-4.02;79;929.2544;;;;
2021/01/05 04:29:09;;;;;;;1.5;1.4;;;;;;;-4.1;78.81836;929.2505;;;;
2021/01/05 04:31:34;;;;;;;3.1;2.1;;;;;;;-4.05;78.79297;929.2153;;;;
2021/01/05 04:34:00;;;;;;;2.3;2;;;;;;;-3.97;78.47852;929.2236;;;;
2021/01/05 04:36:26;;;;;;;3.9;2.2;;;;;;;-3.89;78.26172;929.267;;;;
2021/01/05 04:38:51;;;;;;;3;2.3;;;;;;;-3.76;77.53516;929.2431;;;;
2021/01/05 04:41:17;;;;;;;5.4;2.3;;;;;;;-3.82;77.42383;929.3139;;;;
2021/01/05 04:43:42;;;;;;;3.5;2;;;;;;;-3.98;78.36523;929.2604;;;;
2021/01/05 04:46:07;;;;;;;2.4;1.8;;;;;;;-3.86;78.68652;929.2933;;;;
2021/01/05 04:48:32;;;;;;;6.7;2.2;;;;;;;-3.99;79.16992;929.2372;;;;
2021/01/05 04:50:58;;;;;;;5;2.6;;;;;;;-3.99;79.78809;929.3379;;;;
2021/01/05 04:53:23;;;;;;;5.5;2.3;;;;;;;-4.11;80.46973;929.327;;;;
2021/01/05 04:55:48;;;;;;;3.3;2.2;;;;;;;-3.96;80.30078;929.4408;;;;
2021/01/05 04:58:13;;;;;;;2.3;1.5;;;;;;;-4.08;80.02441;929.3384;;;;
2021/01/05 05:00:39;;;;;;;2.7;2.1;;;;;;;-4.14;80.33203;929.467;;;;
2021/01/05 05:03:03;;;;;;;4.8;2.1;;;;;;;-4;79.93945;929.4855;;;;
2021/01/05 05:05:29;;;;;;;3.2;2.1;;;;;;;-4.08;80.11133;929.5014;;;;
2021/01/05 05:07:54;;;;;;;2.5;1.5;;;;;;;-3.83;78.19531;929.4906;;;;
2021/01/05 05:10:19;;;;;;;3.2;2.3;;;;;;;-3.77;77.02539;929.4364;;;;
2021/01/05 05:12:44;;;;;;;1.8;1.6;;;;;;;-3.66;76.74902;929.5325;;;;
2021/01/05 05:15:10;;;;;;;6.2;2.5;;;;;;;-3.55;76.41406;929.5879;;;;
2021/01/05 05:17:38;;;;;;;3.2;2.3;;;;;;;-3.67;76.67969;929.5828;;;;
2021/01/05 05:20:01;;;;;;;4.1;2.4;;;;;;;-3.62;77.44922;929.4922;;;;
2021/01/05 05:22:27;;;;;;;1.9;1.4;;;;;;;-3.69;77.17285;929.5877;;;;
2021/01/05 05:24:52;;;;;;;4.3;2.6;;;;;;;-3.77;77.97461;929.567;;;;
2021/01/05 05:27:17;;;;;;;2.9;1.8;;;;;;;-3.99;78.66309;929.6348;;;;
2021/01/05 05:29:42;;;;;;;2.7;1.9;;;;;;;-3.91;80.28711;929.6578;;;;
2021/01/05 05:32:07;;;;;;;9.8;2.1;;;;;;;-3.77;80.19434;929.6594;;;;
2021/01/05 05:34:32;;;;;;;1.8;1.4;;;;;;;-4.01;79.36328;929.7422;;;;
2021/01/05 05:36:57;;;;;;;3.5;2.2;;;;;;;-4.24;79.65137;929.6069;;;;
2021/01/05 05:39:23;;;;;;;3.6;2.3;;;;;;;-4.16;79.83105;929.66;;;;
2021/01/05 05:41:48;;;;;;;2.8;1.5;;;;;;;-3.88;78.8584;929.6312;;;;
2021/01/05 05:44:13;;;;;;;3.9;1.6;;;;;;;-3.75;77.78906;929.7061;;;;
2021/01/05 05:46:38;;;;;;;1.9;1.3;;;;;;;-3.77;77.10059;929.6088;;;;
2021/01/05 05:49:03;;;;;;;1.9;1.7;;;;;;;-3.9;77.14551;929.7587;;;;
2021/01/05 05:51:29;;;;;;;2.8;2;;;;;;;-3.91;77.59473;929.786;;;;
2021/01/05 05:53:54;;;;;;;2;1.1;;;;;;;-3.74;76.88867;929.7349;;;;
2021/01/05 05:56:19;;;;;;;1.7;1.3;;;;;;;-3.68;77.00879;929.7634;;;;
2021/01/05 05:58:44;;;;;;;2.3;1.2;;;;;;;-3.52;77.11621;929.8118;;;;
2021/01/05 06:01:09;;;;;;;7.5;3.6;;;;;;;-3.6;79.57324;929.7977;;;;
2021/01/05 06:03:34;;;;;;;5.1;2.5;;;;;;;-3.73;81.16113;929.8309;;;;
2021/01/05 06:05:59;;;;;;;3;2.6;;;;;;;-3.63;80.7959;929.9001;;;;
2021/01/05 06:08:25;;;;;;;2.4;1.8;;;;;;;-3.64;78.23242;929.8658;;;;
2021/01/05 06:10:50;;;;;;;4.5;2.7;;;;;;;-3.62;79.89063;929.8998;;;;
2021/01/05 06:13:15;;;;;;;6.2;3.2;;;;;;;-3.81;81.50098;929.9373;;;;
2021/01/05 06:15:40;;;;;;;4.3;2.3;;;;;;;-3.95;82.39941;929.932;;;;
2021/01/05 06:18:05;;;;;;;2;1.8;;;;;;;-3.96;79.57227;929.9392;;;;
2021/01/05 06:20:30;;;;;;;2.1;1.7;;;;;;;-4.05;78;929.8918;;;;
2021/01/05 06:22:55;;;;;;;1.4;1.3;;;;;;;-4.12;78.16309;929.9254;;;;
2021/01/05 06:25:21;;;;;;;3.1;2.3;;;;;;;-4.01;79.38574;930.0086;;;;
2021/01/05 06:27:46;;;;;;;2.6;1.6;;;;;;;-3.72;78.85742;929.9785;;;;
2021/01/05 06:30:11;;;;;;;3;1.9;;;;;;;-3.64;77.9541;929.9377;;;;
2021/01/05 06:32:36;;;;;;;5.7;1.7;;;;;;;-3.64;78.34277;930.0789;;;;
2021/01/05 06:35:01;;;;;;;4.7;2.7;;;;;;;-3.53;79.125;930.0507;;;;
2021/01/05 06:37:26;;;;;;;3;1.8;;;;;;;-3.5;79.33984;930.1293;;;;
2021/01/05 06:39:51;;;;;;;4.6;3.1;;;;;;;-3.77;80.55859;930.1306;;;;
2021/01/05 06:42:16;;;;;;;7.1;3.2;;;;;;;-3.73;81.29395;930.1716;;;;
2021/01/05 06:44:41;;;;;;;5.2;3;;;;;;;-3.76;81.65332;930.2161;;;;
2021/01/05 06:47:08;;;;;;;3.1;2.7;;;;;;;-3.57;81.53516;930.171;;;;
2021/01/05 06:49:33;;;;;;;5.5;2.9;;;;;;;-3.4;81.0498;930.2191;;;;
2021/01/05 06:51:58;;;;;;;3.5;2.1;;;;;;;-3.23;80.375;930.1556;;;;
2021/01/05 06:54:23;;;;;;;3.3;2.6;;;;;;;-3.22;80.3877;930.2299;;;;
2021/01/05 06:56:49;;;;;;;3.2;1.9;;;;;;;-3.43;78.11621;930.2183;;;;
2021/01/05 06:59:13;;;;;;;3.2;2.6;;;;;;;-3.51;78.18945;930.2455;;;;
2021/01/05 07:01:39;;;;;;;2.8;2.2;;;;;;;-3.58;79.82129;930.313;;;;
2021/01/05 07:04:04;;;;;;;3.3;2.1;;;;;;;-3.46;79.76855;930.3289;;;;
2021/01/05 07:06:29;;;;;;;7.6;2.8;;;;;;;-3.47;80.30664;930.3564;;;;
2021/01/05 07:08:55;;;;;;;3.2;2.2;;;;;;;-3.48;80.48145;930.3488;;;;
2021/01/05 07:11:20;;;;;;;5.7;3;;;;;;;-3.43;80.55762;930.3203;;;;
2021/01/05 07:13:45;;;;;;;7.1;2.6;;;;;;;-3.44;79.7168;930.3688;;;;
2021/01/05 07:16:10;;;;;;;5.4;3.3;;;;;;;-3.37;79.82813;930.4752;;;;
2021/01/05 07:18:35;;;;;;;11.5;5.9;;;;;;;-3.27;79.38281;930.5286;;;;
2021/01/05 07:21:01;;;;;;;5.1;3.4;;;;;;;-3.19;79.09766;930.5195;;;;
2021/01/05 07:23:26;;;;;;;6.7;3.7;;;;;;;-3.46;79.23633;930.6336;;;;
2021/01/05 07:25:51;;;;;;;5;3.4;;;;;;;-3.48;79.88477;930.6228;;;;
2021/01/05 07:28:16;;;;;;;4.6;2.7;;;;;;;-3.33;80.19043;930.705;;;;
2021/01/05 07:30:41;;;;;;;8.4;2.7;;;;;;;-3.33;79.72656;930.7399;;;;
2021/01/05 07:33:06;;;;;;;4.6;3.1;;;;;;;-3.56;79.86035;930.7614;;;;
2021/01/05 07:35:31;;;;;;;7.8;4.6;;;;;;;-3.6;79.87305;930.6964;;;;
2021/01/05 07:37:56;;;;;;;5.7;3.5;;;;;;;-3.52;80.53906;930.6923;;;;
2021/01/05 07:40:21;;;;;;;3.9;2.4;;;;;;;-3.64;79.60156;930.7858;;;;
2021/01/05 07:42:46;;;;;;;3.6;2.5;;;;;;;-3.85;79.75;930.7683;;;;
2021/01/05 07:45:11;;;;;;;6.1;3.7;;;;;;;-3.9;79.68262;930.7219;;;;
2021/01/05 07:47:37;;;;;;;3.9;2;;;;;;;-4;79.95215;930.784;;;;
2021/01/05 07:50:03;;;;;;;5.8;2.9;;;;;;;-3.8;79.0957;930.8029;;;;
2021/01/05 07:52:28;;;;;;;2.4;1.7;;;;;;;-3.78;78.22754;930.7778;;;;
2021/01/05 07:54:53;;;;;;;6.5;3.6;;;;;;;-3.53;78.76074;930.7913;;;;
2021/01/05 07:57:18;;;;;;;5.3;3.7;;;;;;;-3.67;79.51758;930.919;;;;
2021/01/05 07:59:43;;;;;;;9.7;4.7;;;;;;;-3.85;79.96875;930.9009;;;;
2021/01/05 08:02:09;;;;;;;7.6;3.4;;;;;;;-3.86;80.82813;930.91;;;;
2021/01/05 08:04:34;;;;;;;4.8;3.2;;;;;;;-3.92;80.82617;930.9495;;;;
2021/01/05 08:06:59;;;;;;;10.6;5.8;;;;;;;-3.93;79.89746;930.9586;;;;
2021/01/05 08:09:24;;;;;;;6.2;2.9;;;;;;;-3.92;78.88574;930.9389;;;;
2021/01/05 08:11:49;;;;;;;12.1;4.5;;;;;;;-3.78;78.09473;930.9608;;;;
2021/01/05 08:14:14;;;;;;;3.2;2.9;;;;;;;-3.84;78.90137;930.9327;;;;
2021/01/05 08:16:39;;;;;;;5.8;2.6;;;;;;;-3.73;77.86035;930.9938;;;;
2021/01/05 08:19:04;;;;;;;45.8;19.2;;;;;;;-3.73;77.7832;931.0581;;;;
2021/01/05 08:21:30;;;;;;;7.5;4;;;;;;;-3.52;77.69043;931.0311;;;;
2021/01/05 08:23:55;;;;;;;4;2.9;;;;;;;-3.5;76.81055;931.0325;;;;
2021/01/05 08:26:20;;;;;;;5.8;4;;;;;;;-3.42;76.96875;930.9713;;;;
2021/01/05 08:28:45;;;;;;;14.8;8.8;;;;;;;-3.41;77.18066;931.0394;;;;
2021/01/05 08:31:10;;;;;;;9.6;4;;;;;;;-3.17;76.59375;931.0848;;;;
2021/01/05 08:33:35;;;;;;;10.4;5.5;;;;;;;-3.43;76.14941;931.0244;;;;
2021/01/05 08:36:00;;;;;;;13.8;7.5;;;;;;;-3.57;77.73535;931.051;;;;
2021/01/05 08:38:25;;;;;;;4.8;3.2;;;;;;;-3.27;77.85742;931.009;;;;
2021/01/05 08:40:51;;;;;;;7.6;5.6;;;;;;;-3.23;76.72754;931.0359;;;;
2021/01/05 08:43:16;;;;;;;17.8;8.7;;;;;;;-3.19;76.55664;931.0187;;;;
2021/01/05 08:45:41;;;;;;;6.4;3.9;;;;;;;-3.49;76.86719;930.998;;;;
2021/01/05 08:48:06;;;;;;;12.4;6.8;;;;;;;-3.72;77.47559;931.012;;;;
2021/01/05 08:50:32;;;;;;;11.5;6.1;;;;;;;-3.95;78.4707;931.0381;;;;
2021/01/05 08:52:56;;;;;;;6.5;4;;;;;;;-3.77;78.44043;931.0424;;;;
2021/01/05 08:55:21;;;;;;;4.3;2.3;;;;;;;-3.51;77.8252;931.0974;;;;
2021/01/05 08:57:46;;;;;;;4.9;3.4;;;;;;;-3.47;76.84863;931.1002;;;;
2021/01/05 09:00:11;;;;;;;7.7;4.3;;;;;;;-3.34;77.22559;931.1058;;;;
2021/01/05 09:02:37;;;;;;;4;2.7;;;;;;;-3.21;76.24414;931.1356;;;;
2021/01/05 09:05:02;;;;;;;7.5;4;;;;;;;-3.04;76.08594;931.1875;;;;
2021/01/05 09:07:27;;;;;;;3.3;2.9;;;;;;;-3.08;75.37305;931.1633;;;;
2021/01/05 09:09:52;;;;;;;5.6;3.1;;;;;;;-3.14;76.125;931.2392;;;;
2021/01/05 09:12:17;;;;;;;6.9;3.8;;;;;;;-3.16;75.62207;931.2153;;;;
2021/01/05 09:14:42;;;;;;;4.4;3.1;;;;;;;-3.15;75.38184;931.2494;;;;
2021/01/05 09:17:07;;;;;;;11.4;3.9;;;;;;;-3.05;75.28906;931.1256;;;;
2021/01/05 09:19:33;;;;;;;5.4;2.8;;;;;;;-3.12;75.38672;931.247;;;;
2021/01/05 09:21:57;;;;;;;4.5;3.2;;;;;;;-3.06;75.55371;931.2749;;;;
2021/01/05 09:24:23;;;;;;;3.3;2.3;;;;;;;-2.81;75.16602;931.2447;;;;
2021/01/05 09:26:49;;;;;;;14.3;4.1;;;;;;;-2.55;75.15723;931.2508;;;;
2021/01/05 09:29:14;;;;;;;7.8;4.2;;;;;;;-2.57;74.19043;931.2015;;;;
2021/01/05 09:31:39;;;;;;;3.5;2.9;;;;;;;-2.33;74.69727;931.1884;;;;
2021/01/05 09:34:04;;;;;;;6.9;3.6;;;;;;;-2.35;73.12305;931.2142;;;;
2021/01/05 09:36:30;;;;;;;10.2;6;;;;;;;-2.27;73.22461;931.1887;;;;
2021/01/05 09:38:55;;;;;;;6.2;3.7;;;;;;;-2.04;73.02148;931.1582;;;;
2021/01/05 09:41:20;;;;;;;11.8;5.4;;;;;;;-1.93;73.13086;931.1142;;;;
2021/01/05 09:43:46;;;;;;;62.1;24.7;;;;;;;-1.9;71.81445;931.0662;;;;
2021/01/05 09:46:11;;;;;;;29.6;15.5;;;;;;;-2.33;73.19141;931.0848;;;;
2021/01/05 09:48:36;;;;;;;34.6;15.1;;;;;;;-2.42;73.68457;931.1591;;;;
2021/01/05 09:51:01;;;;;;;14.5;6.2;;;;;;;-2.22;74.19629;931.127;;;;
2021/01/05 09:53:26;;;;;;;6.7;2.9;;;;;;;-2.01;73.51563;931.1658;;;;
2021/01/05 09:55:51;;;;;;;5.5;3.1;;;;;;;-1.91;72.82129;931.0914;;;;
2021/01/05 09:58:16;;;;;;;8.3;3.6;;;;;;;-1.91;72.23535;931.087;;;;
2021/01/05 10:00:42;;;;;;;4.8;3;;;;;;;-2.13;72.73926;931.0712;;;;
2021/01/05 10:03:07;;;;;;;8.8;3.6;;;;;;;-2.29;73.58691;931.0586;;;;
2021/01/05 10:05:32;;;;;;;6.8;3.7;;;;;;;-2.17;73.96191;931.0594;;;;
2021/01/05 10:07:57;;;;;;;7.9;4;;;;;;;-1.86;74.57227;931.0283;;;;
2021/01/05 10:10:22;;;;;;;6.2;4;;;;;;;-1.42;72.86328;930.9875;;;;
2021/01/05 10:12:47;;;;;;;10.9;5.1;;;;;;;-1.39;73.0127;930.96;;;;
2021/01/05 10:15:12;;;;;;;7.6;4.3;;;;;;;-1.23;71.93945;930.8759;;;;
2021/01/05 10:17:37;;;;;;;5.6;3.3;;;;;;;-1.07;70.76758;930.8061;;;;
2021/01/05 10:20:02;;;;;;;45.5;23.9;;;;;;;-1.41;71.45313;930.9214;;;;
2021/01/05 10:22:29;;;;;;;10.3;3.8;;;;;;;-1.3;71.71582;930.8839;;;;
2021/01/05 10:24:56;;;;;;;11;6.8;;;;;;;-1.13;71.06738;930.8176;;;;
2021/01/05 10:27:21;;;;;;;13.9;8.4;;;;;;;-1.11;71.52734;930.6975;;;;
2021/01/05 10:29:46;;;;;;;11.4;5.5;;;;;;;-0.88;72.24414;930.7209;;;;
2021/01/05 10:32:11;;;;;;;72.2;30.9;;;;;;;-0.91;70.38281;930.7494;;;;
2021/01/05 10:34:36;;;;;;;11;5.1;;;;;;;-0.83;70.19531;930.722;;;;
2021/01/05 10:37:07;;;;;;;7.3;4.7;;;;;;;-0.72;70.31445;930.7144;;;;
2021/01/05 10:39:31;;;;;;;10.7;4.6;;;;;;;-0.58;69.83789;930.7177;;;;
2021/01/05 10:41:56;;;;;;;11.2;5.9;;;;;;;-0.46;70.62598;930.6551;;;;
2021/01/05 10:44:21;;;;;;;9.2;5.4;;;;;;;-0.35;70.34277;930.6133;;;;
2021/01/05 10:46:46;;;;;;;4.8;3.5;;;;;;;-0.21;69.83105;930.5042;;;;
2021/01/05 10:49:11;;;;;;;7.5;4;;;;;;;0.2;68.30469;930.5106;;;;
2021/01/05 10:51:36;;;;;;;5.9;4.1;;;;;;;0.22;67.40527;930.5398;;;;
2021/01/05 10:54:02;;;;;;;5.9;4.1;;;;;;;0.34;67.64844;930.5455;;;;
2021/01/05 10:56:27;;;;;;;8;4.2;;;;;;;0.42;67.42676;930.4838;;;;
2021/01/05 10:58:52;;;;;;;12.6;5.2;;;;;;;0.69;67.29297;930.5331;;;;
2021/01/05 11:01:17;;;;;;;7.7;4.4;;;;;;;0.62;66.32129;930.587;;;;
2021/01/05 11:03:42;;;;;;;9.8;4.6;;;;;;;0.64;66.72559;930.5994;;;;
2021/01/05 11:06:07;;;;;;;8.3;4;;;;;;;0.65;66.48145;930.5066;;;;
2021/01/05 11:08:32;;;;;;;9.4;4.3;;;;;;;1.04;66.23145;930.4314;;;;
2021/01/05 11:11:00;;;;;;;14.7;4.5;;;;;;;1.1;64.58691;930.3846;;;;
2021/01/05 11:13:25;;;;;;;8.5;3.3;;;;;;;0.95;64.9873;930.4014;;;;
2021/01/05 11:15:50;;;;;;;9.1;4.7;;;;;;;0.95;65.37988;930.4878;;;;
2021/01/05 11:18:16;;;;;;;10.4;4.4;;;;;;;0.88;65.56934;930.4519;;;;
2021/01/05 11:20:41;;;;;;;11.4;3.3;;;;;;;0.65;67.03906;930.3304;;;;
2021/01/05 11:23:06;;;;;;;9.7;4.1;;;;;;;0.9;65.8291;930.3567;;;;
2021/01/05 11:25:31;;;;;;;11.1;4.3;;;;;;;0.96;65.57129;930.3119;;;;
2021/01/05 11:27:56;;;;;;;9.3;4.6;;;;;;;0.78;66.25684;930.3864;;;;
2021/01/05 11:30:21;;;;;;;5.7;4.2;;;;;;;0.77;66.41211;930.3844;;;;
2021/01/05 11:32:46;;;;;;;5.7;3;;;;;;;0.73;65.53613;930.3668;;;;
2021/01/05 11:35:11;;;;;;;7.2;3.3;;;;;;;1.06;65.39648;930.2972;;;;
2021/01/05 11:37:36;;;;;;;4.1;3.6;;;;;;;1.27;65.25977;930.2913;;;;
2021/01/05 11:40:01;;;;;;;10;5.1;;;;;;;1.27;64.47852;930.2971;;;;
2021/01/05 11:42:26;;;;;;;11;5;;;;;;;0.96;65.48047;930.2748;;;;
2021/01/05 11:44:51;;;;;;;6.8;3.1;;;;;;;1.21;64.94922;930.2473;;;;
2021/01/05 11:47:16;;;;;;;12.6;5.6;;;;;;;1.26;64.66797;930.2983;;;;
2021/01/05 11:49:41;;;;;;;8.2;4.9;;;;;;;1.24;64.47363;930.296;;;;
2021/01/05 11:52:06;;;;;;;16.9;5.4;;;;;;;1.22;65.03027;930.272;;;;
2021/01/05 11:54:32;;;;;;;3.9;3;;;;;;;1.33;64.64648;930.2942;;;;
2021/01/05 11:56:57;;;;;;;8.8;3.9;;;;;;;1.52;63.87891;930.2256;;;;
2021/01/05 11:59:22;;;;;;;7.1;4.2;;;;;;;1.18;64.69043;930.127;;;;
2021/01/05 12:01:47;;;;;;;7.6;4.4;;;;;;;1.21;65.68652;930.0945;;;;
2021/01/05 12:04:12;;;;;;;6;3.9;;;;;;;1.23;64.61914;930.1184;;;;
2021/01/05 12:06:37;;;;;;;12.1;5.5;;;;;;;1.37;64.63965;930.0842;;;;
2021/01/05 12:09:02;;;;;;;12.9;4.7;;;;;;;1.45;64.63965;930.1426;;;;
2021/01/05 12:11:27;;;;;;;4.4;3.2;;;;;;;1.41;64.24414;930.0653;;;;
2021/01/05 12:13:53;;;;;;;5.9;3.3;;;;;;;1.27;65.8418;930.0876;;;;
2021/01/05 12:16:18;;;;;;;10.3;4.9;;;;;;;1.55;64.77832;930.0672;;;;
2021/01/05 12:18:45;;;;;;;5.3;3;;;;;;;1.39;64.2959;930.1131;;;;
2021/01/05 12:21:08;;;;;;;6.8;4.3;;;;;;;1.4;64.67871;930.0887;;;;
2021/01/05 12:23:33;;;;;;;9.5;4.5;;;;;;;1.68;63.37891;930.0338;;;;
2021/01/05 12:25:58;;;;;;;6.6;4.1;;;;;;;1.58;63.85645;929.985;;;;
2021/01/05 12:28:23;;;;;;;13;4.9;;;;;;;1.68;63.24316;929.9285;;;;
2021/01/05 12:30:48;;;;;;;10.2;5.1;;;;;;;1.52;64.40527;929.824;;;;
2021/01/05 12:33:13;;;;;;;9;3.5;;;;;;;1.35;64.40332;929.7961;;;;
2021/01/05 12:35:38;;;;;;;9.3;5.3;;;;;;;1.61;63.2002;929.7916;;;;
2021/01/05 12:38:03;;;;;;;9.3;5.2;;;;;;;1.55;63.58105;929.7525;;;;
2021/01/05 12:40:29;;;;;;;6.4;4;;;;;;;1.48;63.96289;929.6902;;;;
2021/01/05 12:42:54;;;;;;;7.1;4.5;;;;;;;1.46;64.92285;929.6702;;;;
2021/01/05 12:45:19;;;;;;;4;2.8;;;;;;;1.27;64.98145;929.7614;;;;
2021/01/05 12:47:44;;;;;;;14.1;6;;;;;;;1.44;63.86816;929.6921;;;;
2021/01/05 12:50:09;;;;;;;7.9;4.1;;;;;;;1.31;64.97656;929.6778;;;;
2021/01/05 12:52:34;;;;;;;9.7;4.5;;;;;;;0.88;66.9873;929.6769;;;;
2021/01/05 12:54:59;;;;;;;5.4;3.4;;;;;;;0.93;66.19043;929.6117;;;;
2021/01/05 12:57:25;;;;;;;11.5;5.4;;;;;;;1.04;66.21973;929.6705;;;;
2021/01/05 12:59:51;;;;;;;8.1;3.4;;;;;;;1.12;66.12109;929.61;;;;
2021/01/05 13:02:16;;;;;;;9.2;4.6;;;;;;;1.23;66.09375;929.5822;;;;
2021/01/05 13:04:40;;;;;;;6.8;2.7;;;;;;;1.49;64.86035;929.5964;;;;
2021/01/05 13:07:06;;;;;;;7.6;3.6;;;;;;;1.48;64.46582;929.5686;;;;
2021/01/05 13:09:31;;;;;;;12.9;4.9;;;;;;;1.27;65.49609;929.5215;;;;
2021/01/05 13:11:56;;;;;;;7.7;3.6;;;;;;;1.37;64.99707;929.5101;;;;
2021/01/05 13:14:21;;;;;;;10.9;4.9;;;;;;;1.31;64.94434;929.5344;;;;
2021/01/05 13:16:47;;;;;;;6.1;3.7;;;;;;;1.27;65.09375;929.4863;;;;
2021/01/05 13:19:11;;;;;;;8.2;4.8;;;;;;;1.44;64.71777;929.4177;;;;
2021/01/05 13:21:37;;;;;;;8.4;3.9;;;;;;;1.01;65.39941;929.5377;;;;
2021/01/05 13:24:02;;;;;;;7.5;4.1;;;;;;;0.98;67.14844;929.545;;;;
2021/01/05 13:26:27;;;;;;;6.4;3.7;;;;;;;0.86;67.3623;929.5022;;;;
2021/01/05 13:28:52;;;;;;;8.2;4;;;;;;;1;66.6709;929.4869;;;;
2021/01/05 13:31:17;;;;;;;7;4.4;;;;;;;0.93;66.40234;929.5176;;;;
2021/01/05 13:33:43;;;;;;;10.9;4.4;;;;;;;0.57;68.36621;929.5303;;;;
2021/01/05 13:36:07;;;;;;;8.5;4.6;;;;;;;0.79;67.85449;929.5295;;;;
2021/01/05 13:38:33;;;;;;;9.5;5.4;;;;;;;0.58;66.47168;929.5783;;;;
2021/01/05 13:40:58;;;;;;;12.8;4.5;;;;;;;0.3;68.46582;929.575;;;;
2021/01/05 13:43:23;;;;;;;9;4.8;;;;;;;0.43;69.00098;929.5865;;;;
2021/01/05 13:45:48;;;;;;;9.9;5.2;;;;;;;0.38;69.29492;929.5778;;;;
2021/01/05 13:48:14;;;;;;;13.2;5.4;;;;;;;0.47;69.58789;929.5098;;;;
2021/01/05 13:50:39;;;;;;;6.8;4;;;;;;;0.4;69.25098;929.3958;;;;
2021/01/05 13:53:03;;;;;;;10.9;4.7;;;;;;;0.41;69.7002;929.5908;;;;
2021/01/05 13:55:29;;;;;;;6.4;4.3;;;;;;;0.63;68.86621;929.577;;;;
2021/01/05 13:57:54;;;;;;;9.1;4.6;;;;;;;0.58;68.5127;929.6143;;;;
2021/01/05 14:00:19;;;;;;;6.8;3.7;;;;;;;0.68;68.29297;929.6475;;;;
2021/01/05 14:02:45;;;;;;;8;4;;;;;;;0.38;68.82617;929.5167;;;;
2021/01/05 14:05:10;;;;;;;5.7;3.7;;;;;;;0.3;69.25879;929.5798;;;;
2021/01/05 14:07:36;;;;;;;8.6;5.1;;;;;;;0.45;69.03906;929.6306;;;;
2021/01/05 14:10:01;;;;;;;7.2;4.3;;;;;;;0.56;68.68848;929.634;;;;
2021/01/05 14:12:26;;;;;;;9.8;4.8;;;;;;;0.53;68.77148;929.676;;;;
2021/01/05 14:14:51;;;;;;;6.9;4.2;;;;;;;0.58;69.1582;929.6925;;;;
2021/01/05 14:17:16;;;;;;;5;3.6;;;;;;;0.58;68.43359;929.7012;;;;